sensor_id;sensor_type;location;lat;lon;timestamp;P1;durP1;ratioP1;P2;durP2;ratioP2
25045;SDS011;13044;49.304;12.840;2023-12-20T00:02:15;9.43;;;6.47;;
25045;SDS011;13044;49.304;12.840;2023-12-20T00:04:42;9.32;;;6.70;;
25045;SDS011;13044;49.304;12.840;2023-12-20T00:07:10;9.45;;;6.43;;
25045;SDS011;13044;49.304;12.840;2023-12-20T00:09:37;9.27;;;6.80;;
25045;SDS011;13044;49.304;12.840;2023-12-20T00:12:04;12.90;;;7.22;;
25045;SDS011;13044;49.304;12.840;2023-12-20T00:14:31;17.45;;;9.35;;
25045;SDS011;13044;49.304;12.840;2023-12-20T00:16:58;19.48;;;9.05;;
25045;SDS011;13044;49.304;12.840;2023-12-20T00:19:25;22.40;;;10.82;;
25045;SDS011;13044;49.304;12.840;2023-12-20T00:21:52;22.13;;;10.85;;
25045;SDS011;13044;49.304;12.840;2023-12-20T00:24:19;30.98;;;13.45;;
25045;SDS011;13044;49.304;12.840;2023-12-20T00:26:46;27.80;;;12.05;;
25045;SDS011;13044;49.304;12.840;2023-12-20T00:29:13;25.35;;;11.63;;
25045;SDS011;13044;49.304;12.840;2023-12-20T00:31:40;20.33;;;9.27;;
25045;SDS011;13044;49.304;12.840;2023-12-20T00:34:07;13.00;;;7.18;;
25045;SDS011;13044;49.304;12.840;2023-12-20T00:36:34;12.70;;;7.00;;
25045;SDS011;13044;49.304;12.840;2023-12-20T00:39:01;14.65;;;7.38;;
25045;SDS011;13044;49.304;12.840;2023-12-20T00:41:28;11.93;;;7.13;;
25045;SDS011;13044;49.304;12.840;2023-12-20T00:43:56;12.52;;;7.93;;
25045;SDS011;13044;49.304;12.840;2023-12-20T00:46:22;11.48;;;6.90;;
25045;SDS011;13044;49.304;12.840;2023-12-20T00:48:49;9.05;;;6.57;;
25045;SDS011;13044;49.304;12.840;2023-12-20T00:51:16;8.70;;;6.45;;
25045;SDS011;13044;49.304;12.840;2023-12-20T00:53:43;8.35;;;6.32;;
25045;SDS011;13044;49.304;12.840;2023-12-20T00:56:10;9.73;;;6.30;;
25045;SDS011;13044;49.304;12.840;2023-12-20T00:58:37;11.82;;;6.95;;
25045;SDS011;13044;49.304;12.840;2023-12-20T01:01:05;10.52;;;6.68;;
25045;SDS011;13044;49.304;12.840;2023-12-20T01:03:32;10.52;;;6.50;;
25045;SDS011;13044;49.304;12.840;2023-12-20T01:05:59;8.80;;;6.03;;
25045;SDS011;13044;49.304;12.840;2023-12-20T01:08:26;9.10;;;6.47;;
25045;SDS011;13044;49.304;12.840;2023-12-20T01:10:52;10.02;;;6.13;;
25045;SDS011;13044;49.304;12.840;2023-12-20T01:13:19;9.23;;;6.70;;
25045;SDS011;13044;49.304;12.840;2023-12-20T01:15:46;7.30;;;5.82;;
25045;SDS011;13044;49.304;12.840;2023-12-20T01:18:14;9.07;;;6.47;;
25045;SDS011;13044;49.304;12.840;2023-12-20T01:20:41;10.82;;;6.78;;
25045;SDS011;13044;49.304;12.840;2023-12-20T01:23:08;10.55;;;6.60;;
25045;SDS011;13044;49.304;12.840;2023-12-20T01:25:36;10.90;;;6.72;;
25045;SDS011;13044;49.304;12.840;2023-12-20T01:28:03;9.50;;;6.22;;
25045;SDS011;13044;49.304;12.840;2023-12-20T01:30:30;9.57;;;6.63;;
25045;SDS011;13044;49.304;12.840;2023-12-20T01:32:59;9.50;;;7.03;;
25045;SDS011;13044;49.304;12.840;2023-12-20T01:35:27;10.13;;;6.93;;
25045;SDS011;13044;49.304;12.840;2023-12-20T01:37:54;9.10;;;6.75;;
25045;SDS011;13044;49.304;12.840;2023-12-20T01:40:24;12.18;;;7.43;;
25045;SDS011;13044;49.304;12.840;2023-12-20T01:43:01;11.80;;;7.63;;
25045;SDS011;13044;49.304;12.840;2023-12-20T01:45:32;9.88;;;7.35;;
25045;SDS011;13044;49.304;12.840;2023-12-20T01:48:00;12.50;;;8.38;;
25045;SDS011;13044;49.304;12.840;2023-12-20T01:50:29;12.57;;;8.18;;
25045;SDS011;13044;49.304;12.840;2023-12-20T01:52:58;14.55;;;7.88;;
25045;SDS011;13044;49.304;12.840;2023-12-20T01:55:27;14.48;;;8.85;;
25045;SDS011;13044;49.304;12.840;2023-12-20T01:57:59;12.98;;;9.10;;
25045;SDS011;13044;49.304;12.840;2023-12-20T02:00:26;13.65;;;9.93;;
25045;SDS011;13044;49.304;12.840;2023-12-20T02:02:55;14.77;;;9.07;;
25045;SDS011;13044;49.304;12.840;2023-12-20T02:05:22;14.10;;;9.98;;
25045;SDS011;13044;49.304;12.840;2023-12-20T02:07:51;14.75;;;9.90;;
25045;SDS011;13044;49.304;12.840;2023-12-20T02:10:19;16.15;;;9.40;;
25045;SDS011;13044;49.304;12.840;2023-12-20T02:12:45;16.80;;;9.88;;
25045;SDS011;13044;49.304;12.840;2023-12-20T02:15:12;13.98;;;9.65;;
25045;SDS011;13044;49.304;12.840;2023-12-20T02:17:39;16.33;;;9.68;;
25045;SDS011;13044;49.304;12.840;2023-12-20T02:20:06;15.65;;;10.00;;
25045;SDS011;13044;49.304;12.840;2023-12-20T02:22:34;14.88;;;9.50;;
25045;SDS011;13044;49.304;12.840;2023-12-20T02:25:01;13.63;;;9.25;;
25045;SDS011;13044;49.304;12.840;2023-12-20T02:27:28;13.10;;;9.32;;
25045;SDS011;13044;49.304;12.840;2023-12-20T02:29:56;18.10;;;9.77;;
25045;SDS011;13044;49.304;12.840;2023-12-20T02:32:22;12.93;;;9.10;;
25045;SDS011;13044;49.304;12.840;2023-12-20T02:34:54;13.32;;;9.07;;
25045;SDS011;13044;49.304;12.840;2023-12-20T02:37:21;15.50;;;9.45;;
25045;SDS011;13044;49.304;12.840;2023-12-20T02:39:48;14.13;;;9.55;;
25045;SDS011;13044;49.304;12.840;2023-12-20T02:42:15;15.77;;;9.30;;
25045;SDS011;13044;49.304;12.840;2023-12-20T02:44:42;12.55;;;8.73;;
25045;SDS011;13044;49.304;12.840;2023-12-20T02:47:09;12.13;;;9.02;;
25045;SDS011;13044;49.304;12.840;2023-12-20T02:49:36;13.25;;;9.55;;
25045;SDS011;13044;49.304;12.840;2023-12-20T02:52:03;14.32;;;9.45;;
25045;SDS011;13044;49.304;12.840;2023-12-20T02:54:30;13.82;;;8.98;;
25045;SDS011;13044;49.304;12.840;2023-12-20T02:56:57;13.70;;;9.38;;
25045;SDS011;13044;49.304;12.840;2023-12-20T02:59:24;10.25;;;7.72;;
25045;SDS011;13044;49.304;12.840;2023-12-20T03:01:51;15.70;;;9.55;;
25045;SDS011;13044;49.304;12.840;2023-12-20T03:04:18;13.57;;;9.23;;
25045;SDS011;13044;49.304;12.840;2023-12-20T03:06:45;13.63;;;9.13;;
25045;SDS011;13044;49.304;12.840;2023-12-20T03:09:12;12.25;;;8.68;;
25045;SDS011;13044;49.304;12.840;2023-12-20T03:11:39;16.10;;;8.52;;
25045;SDS011;13044;49.304;12.840;2023-12-20T03:14:06;15.05;;;9.23;;
25045;SDS011;13044;49.304;12.840;2023-12-20T03:16:33;12.38;;;8.88;;
25045;SDS011;13044;49.304;12.840;2023-12-20T03:19:02;13.68;;;9.13;;
25045;SDS011;13044;49.304;12.840;2023-12-20T03:21:29;12.45;;;8.27;;
25045;SDS011;13044;49.304;12.840;2023-12-20T03:23:56;12.65;;;9.88;;
25045;SDS011;13044;49.304;12.840;2023-12-20T03:26:23;15.50;;;10.23;;
25045;SDS011;13044;49.304;12.840;2023-12-20T03:28:50;14.07;;;10.27;;
25045;SDS011;13044;49.304;12.840;2023-12-20T03:31:18;14.13;;;10.02;;
25045;SDS011;13044;49.304;12.840;2023-12-20T03:33:46;13.65;;;9.68;;
25045;SDS011;13044;49.304;12.840;2023-12-20T03:36:13;14.05;;;8.95;;
25045;SDS011;13044;49.304;12.840;2023-12-20T03:38:40;15.45;;;9.48;;
25045;SDS011;13044;49.304;12.840;2023-12-20T03:41:07;12.82;;;9.55;;
25045;SDS011;13044;49.304;12.840;2023-12-20T03:43:34;11.70;;;8.55;;
25045;SDS011;13044;49.304;12.840;2023-12-20T03:46:00;14.23;;;9.65;;
25045;SDS011;13044;49.304;12.840;2023-12-20T03:48:33;13.77;;;9.63;;
25045;SDS011;13044;49.304;12.840;2023-12-20T03:50:59;13.90;;;9.40;;
25045;SDS011;13044;49.304;12.840;2023-12-20T03:53:26;13.82;;;9.82;;
25045;SDS011;13044;49.304;12.840;2023-12-20T03:55:53;13.23;;;9.57;;
25045;SDS011;13044;49.304;12.840;2023-12-20T03:58:20;11.77;;;8.20;;
25045;SDS011;13044;49.304;12.840;2023-12-20T04:00:47;14.68;;;9.65;;
25045;SDS011;13044;49.304;12.840;2023-12-20T04:03:14;12.43;;;9.23;;
25045;SDS011;13044;49.304;12.840;2023-12-20T04:05:41;11.77;;;8.80;;
25045;SDS011;13044;49.304;12.840;2023-12-20T04:08:08;13.80;;;9.63;;
25045;SDS011;13044;49.304;12.840;2023-12-20T04:10:36;14.48;;;8.93;;
25045;SDS011;13044;49.304;12.840;2023-12-20T04:13:03;12.65;;;9.35;;
25045;SDS011;13044;49.304;12.840;2023-12-20T04:15:30;11.32;;;8.38;;
25045;SDS011;13044;49.304;12.840;2023-12-20T04:17:57;13.15;;;8.18;;
25045;SDS011;13044;49.304;12.840;2023-12-20T04:20:24;9.15;;;7.80;;
25045;SDS011;13044;49.304;12.840;2023-12-20T04:22:51;11.05;;;8.35;;
25045;SDS011;13044;49.304;12.840;2023-12-20T04:25:18;10.05;;;7.35;;
25045;SDS011;13044;49.304;12.840;2023-12-20T04:27:45;10.55;;;7.45;;
25045;SDS011;13044;49.304;12.840;2023-12-20T04:30:13;9.32;;;7.43;;
25045;SDS011;13044;49.304;12.840;2023-12-20T04:32:40;9.20;;;7.07;;
25045;SDS011;13044;49.304;12.840;2023-12-20T04:35:06;9.18;;;7.30;;
25045;SDS011;13044;49.304;12.840;2023-12-20T04:37:34;8.88;;;6.57;;
25045;SDS011;13044;49.304;12.840;2023-12-20T04:40:01;8.73;;;6.68;;
25045;SDS011;13044;49.304;12.840;2023-12-20T04:42:29;8.52;;;6.47;;
25045;SDS011;13044;49.304;12.840;2023-12-20T04:44:56;7.38;;;6.13;;
25045;SDS011;13044;49.304;12.840;2023-12-20T04:47:23;8.57;;;6.53;;
25045;SDS011;13044;49.304;12.840;2023-12-20T04:49:50;8.48;;;5.43;;
25045;SDS011;13044;49.304;12.840;2023-12-20T04:52:17;7.70;;;5.70;;
25045;SDS011;13044;49.304;12.840;2023-12-20T04:54:44;7.70;;;5.82;;
25045;SDS011;13044;49.304;12.840;2023-12-20T04:57:11;8.20;;;6.50;;
25045;SDS011;13044;49.304;12.840;2023-12-20T04:59:38;8.25;;;5.97;;
25045;SDS011;13044;49.304;12.840;2023-12-20T05:02:04;7.15;;;5.70;;
25045;SDS011;13044;49.304;12.840;2023-12-20T05:04:31;7.18;;;5.75;;
25045;SDS011;13044;49.304;12.840;2023-12-20T05:06:58;7.45;;;5.70;;
25045;SDS011;13044;49.304;12.840;2023-12-20T05:09:25;8.35;;;5.78;;
25045;SDS011;13044;49.304;12.840;2023-12-20T05:11:52;7.03;;;5.53;;
25045;SDS011;13044;49.304;12.840;2023-12-20T05:14:19;8.32;;;6.03;;
25045;SDS011;13044;49.304;12.840;2023-12-20T05:16:46;9.27;;;6.80;;
25045;SDS011;13044;49.304;12.840;2023-12-20T05:19:13;8.55;;;6.53;;
25045;SDS011;13044;49.304;12.840;2023-12-20T05:21:40;7.90;;;6.40;;
25045;SDS011;13044;49.304;12.840;2023-12-20T05:24:07;6.88;;;6.10;;
25045;SDS011;13044;49.304;12.840;2023-12-20T05:26:34;8.02;;;5.82;;
25045;SDS011;13044;49.304;12.840;2023-12-20T05:29:00;7.72;;;6.18;;
25045;SDS011;13044;49.304;12.840;2023-12-20T05:31:27;5.95;;;5.13;;
25045;SDS011;13044;49.304;12.840;2023-12-20T05:33:54;5.85;;;5.25;;
25045;SDS011;13044;49.304;12.840;2023-12-20T05:36:21;7.10;;;5.70;;
25045;SDS011;13044;49.304;12.840;2023-12-20T05:38:48;6.63;;;5.68;;
25045;SDS011;13044;49.304;12.840;2023-12-20T05:41:15;7.60;;;5.38;;
25045;SDS011;13044;49.304;12.840;2023-12-20T05:43:42;6.38;;;5.20;;
25045;SDS011;13044;49.304;12.840;2023-12-20T05:46:12;6.65;;;5.18;;
25045;SDS011;13044;49.304;12.840;2023-12-20T05:48:39;6.35;;;5.30;;
25045;SDS011;13044;49.304;12.840;2023-12-20T05:51:06;6.35;;;5.15;;
25045;SDS011;13044;49.304;12.840;2023-12-20T05:53:33;7.85;;;5.65;;
25045;SDS011;13044;49.304;12.840;2023-12-20T05:56:00;6.63;;;5.32;;
25045;SDS011;13044;49.304;12.840;2023-12-20T05:58:27;5.85;;;4.90;;
25045;SDS011;13044;49.304;12.840;2023-12-20T06:00:55;8.95;;;4.70;;
25045;SDS011;13044;49.304;12.840;2023-12-20T06:03:22;5.47;;;4.78;;
25045;SDS011;13044;49.304;12.840;2023-12-20T06:05:49;6.20;;;4.75;;
25045;SDS011;13044;49.304;12.840;2023-12-20T06:08:19;5.85;;;4.50;;
25045;SDS011;13044;49.304;12.840;2023-12-20T06:10:46;5.32;;;4.28;;
25045;SDS011;13044;49.304;12.840;2023-12-20T06:13:12;5.50;;;4.50;;
25045;SDS011;13044;49.304;12.840;2023-12-20T06:15:40;5.07;;;3.90;;
25045;SDS011;13044;49.304;12.840;2023-12-20T06:18:07;4.38;;;3.70;;
25045;SDS011;13044;49.304;12.840;2023-12-20T06:20:35;5.85;;;4.60;;
25045;SDS011;13044;49.304;12.840;2023-12-20T06:23:03;5.40;;;4.00;;
25045;SDS011;13044;49.304;12.840;2023-12-20T06:25:29;5.15;;;4.28;;
25045;SDS011;13044;49.304;12.840;2023-12-20T06:27:56;4.25;;;3.85;;
25045;SDS011;13044;49.304;12.840;2023-12-20T06:30:23;5.25;;;4.47;;
25045;SDS011;13044;49.304;12.840;2023-12-20T06:32:51;4.60;;;3.75;;
25045;SDS011;13044;49.304;12.840;2023-12-20T06:35:19;4.43;;;3.25;;
25045;SDS011;13044;49.304;12.840;2023-12-20T06:37:46;4.25;;;3.10;;
25045;SDS011;13044;49.304;12.840;2023-12-20T06:40:13;3.30;;;2.45;;
25045;SDS011;13044;49.304;12.840;2023-12-20T06:42:44;2.20;;;1.90;;
25045;SDS011;13044;49.304;12.840;2023-12-20T06:47:53;1.98;;;1.70;;
25045;SDS011;13044;49.304;12.840;2023-12-20T06:50:20;2.75;;;2.00;;
25045;SDS011;13044;49.304;12.840;2023-12-20T06:52:47;4.38;;;3.00;;
25045;SDS011;13044;49.304;12.840;2023-12-20T06:55:14;3.30;;;2.80;;
25045;SDS011;13044;49.304;12.840;2023-12-20T06:57:41;2.90;;;2.60;;
25045;SDS011;13044;49.304;12.840;2023-12-20T07:00:10;3.55;;;2.80;;
25045;SDS011;13044;49.304;12.840;2023-12-20T07:02:38;2.70;;;2.50;;
25045;SDS011;13044;49.304;12.840;2023-12-20T07:05:05;3.40;;;2.50;;
25045;SDS011;13044;49.304;12.840;2023-12-20T07:07:32;3.97;;;3.22;;
25045;SDS011;13044;49.304;12.840;2023-12-20T07:09:59;3.15;;;2.85;;
25045;SDS011;13044;49.304;12.840;2023-12-20T07:12:26;2.80;;;2.35;;
25045;SDS011;13044;49.304;12.840;2023-12-20T07:14:53;3.42;;;2.55;;
25045;SDS011;13044;49.304;12.840;2023-12-20T07:17:20;2.90;;;2.40;;
25045;SDS011;13044;49.304;12.840;2023-12-20T07:19:47;2.92;;;2.45;;
25045;SDS011;13044;49.304;12.840;2023-12-20T07:22:14;2.60;;;2.20;;
25045;SDS011;13044;49.304;12.840;2023-12-20T07:24:41;2.83;;;2.40;;
25045;SDS011;13044;49.304;12.840;2023-12-20T07:27:08;4.63;;;3.17;;
25045;SDS011;13044;49.304;12.840;2023-12-20T07:29:35;4.75;;;3.47;;
25045;SDS011;13044;49.304;12.840;2023-12-20T07:32:02;4.43;;;3.35;;
25045;SDS011;13044;49.304;12.840;2023-12-20T07:34:29;5.30;;;2.72;;
25045;SDS011;13044;49.304;12.840;2023-12-20T07:36:58;3.03;;;2.50;;
25045;SDS011;13044;49.304;12.840;2023-12-20T07:39:25;2.80;;;2.58;;
25045;SDS011;13044;49.304;12.840;2023-12-20T07:41:52;3.10;;;2.53;;
25045;SDS011;13044;49.304;12.840;2023-12-20T07:44:19;2.70;;;2.30;;
25045;SDS011;13044;49.304;12.840;2023-12-20T07:46:46;4.07;;;2.60;;
25045;SDS011;13044;49.304;12.840;2023-12-20T07:49:14;3.20;;;2.70;;
25045;SDS011;13044;49.304;12.840;2023-12-20T07:51:41;3.70;;;3.13;;
25045;SDS011;13044;49.304;12.840;2023-12-20T07:54:08;4.70;;;3.33;;
25045;SDS011;13044;49.304;12.840;2023-12-20T07:56:35;3.92;;;3.15;;
25045;SDS011;13044;49.304;12.840;2023-12-20T07:59:02;6.07;;;2.92;;
25045;SDS011;13044;49.304;12.840;2023-12-20T08:01:30;3.10;;;2.80;;
25045;SDS011;13044;49.304;12.840;2023-12-20T08:03:57;3.72;;;2.60;;
25045;SDS011;13044;49.304;12.840;2023-12-20T08:06:24;3.35;;;2.88;;
25045;SDS011;13044;49.304;12.840;2023-12-20T08:08:51;2.58;;;2.30;;
25045;SDS011;13044;49.304;12.840;2023-12-20T08:11:27;3.28;;;2.97;;
25045;SDS011;13044;49.304;12.840;2023-12-20T08:13:55;2.90;;;2.70;;
25045;SDS011;13044;49.304;12.840;2023-12-20T08:16:22;4.40;;;3.13;;
25045;SDS011;13044;49.304;12.840;2023-12-20T08:18:50;2.95;;;2.65;;
25045;SDS011;13044;49.304;12.840;2023-12-20T08:21:17;4.53;;;4.05;;
25045;SDS011;13044;49.304;12.840;2023-12-20T08:23:46;4.57;;;2.65;;
25045;SDS011;13044;49.304;12.840;2023-12-20T08:26:13;2.50;;;2.30;;
25045;SDS011;13044;49.304;12.840;2023-12-20T08:28:40;2.47;;;2.28;;
25045;SDS011;13044;49.304;12.840;2023-12-20T08:31:13;2.90;;;2.30;;
25045;SDS011;13044;49.304;12.840;2023-12-20T08:33:42;5.15;;;2.30;;
25045;SDS011;13044;49.304;12.840;2023-12-20T08:36:11;2.42;;;2.22;;
25045;SDS011;13044;49.304;12.840;2023-12-20T08:38:38;2.50;;;2.30;;
25045;SDS011;13044;49.304;12.840;2023-12-20T08:41:06;2.70;;;2.30;;
25045;SDS011;13044;49.304;12.840;2023-12-20T08:43:36;3.78;;;2.80;;
25045;SDS011;13044;49.304;12.840;2023-12-20T08:46:02;3.28;;;2.65;;
25045;SDS011;13044;49.304;12.840;2023-12-20T08:48:29;2.60;;;2.40;;
25045;SDS011;13044;49.304;12.840;2023-12-20T08:50:56;3.13;;;2.55;;
25045;SDS011;13044;49.304;12.840;2023-12-20T08:53:23;4.70;;;2.72;;
25045;SDS011;13044;49.304;12.840;2023-12-20T08:55:51;2.58;;;2.38;;
25045;SDS011;13044;49.304;12.840;2023-12-20T08:58:18;3.63;;;2.53;;
25045;SDS011;13044;49.304;12.840;2023-12-20T09:00:45;3.00;;;2.22;;
25045;SDS011;13044;49.304;12.840;2023-12-20T09:03:12;3.50;;;2.70;;
25045;SDS011;13044;49.304;12.840;2023-12-20T09:05:39;4.15;;;2.50;;
25045;SDS011;13044;49.304;12.840;2023-12-20T09:08:06;2.67;;;2.45;;
25045;SDS011;13044;49.304;12.840;2023-12-20T09:10:34;3.70;;;2.72;;
25045;SDS011;13044;49.304;12.840;2023-12-20T09:13:01;2.45;;;2.20;;
25045;SDS011;13044;49.304;12.840;2023-12-20T09:15:28;3.17;;;2.50;;
25045;SDS011;13044;49.304;12.840;2023-12-20T09:17:58;2.33;;;2.13;;
25045;SDS011;13044;49.304;12.840;2023-12-20T09:20:25;3.10;;;2.13;;
25045;SDS011;13044;49.304;12.840;2023-12-20T09:22:53;2.55;;;2.15;;
25045;SDS011;13044;49.304;12.840;2023-12-20T09:25:20;2.40;;;2.20;;
25045;SDS011;13044;49.304;12.840;2023-12-20T09:27:49;4.50;;;2.78;;
25045;SDS011;13044;49.304;12.840;2023-12-20T09:30:16;2.22;;;2.03;;
25045;SDS011;13044;49.304;12.840;2023-12-20T09:32:52;3.30;;;2.50;;
25045;SDS011;13044;49.304;12.840;2023-12-20T09:35:21;2.78;;;2.50;;
25045;SDS011;13044;49.304;12.840;2023-12-20T09:37:49;2.90;;;2.58;;
25045;SDS011;13044;49.304;12.840;2023-12-20T09:40:17;2.90;;;2.60;;
25045;SDS011;13044;49.304;12.840;2023-12-20T09:42:59;2.95;;;2.65;;
25045;SDS011;13044;49.304;12.840;2023-12-20T09:45:38;2.75;;;2.03;;
25045;SDS011;13044;49.304;12.840;2023-12-20T09:48:07;6.20;;;4.63;;
25045;SDS011;13044;49.304;12.840;2023-12-20T09:50:37;7.72;;;5.35;;
25045;SDS011;13044;49.304;12.840;2023-12-20T09:53:04;4.15;;;3.15;;
25045;SDS011;13044;49.304;12.840;2023-12-20T09:55:36;5.97;;;4.43;;
25045;SDS011;13044;49.304;12.840;2023-12-20T09:58:03;4.00;;;3.60;;
25045;SDS011;13044;49.304;12.840;2023-12-20T10:00:30;3.20;;;2.90;;
25045;SDS011;13044;49.304;12.840;2023-12-20T10:02:57;4.60;;;2.95;;
25045;SDS011;13044;49.304;12.840;2023-12-20T10:05:33;3.30;;;2.97;;
25045;SDS011;13044;49.304;12.840;2023-12-20T10:08:01;4.38;;;2.95;;
25045;SDS011;13044;49.304;12.840;2023-12-20T10:10:29;3.60;;;2.90;;
25045;SDS011;13044;49.304;12.840;2023-12-20T10:13:10;3.78;;;2.95;;
25045;SDS011;13044;49.304;12.840;2023-12-20T10:15:39;4.10;;;3.50;;
25045;SDS011;13044;49.304;12.840;2023-12-20T10:18:08;3.28;;;2.67;;
25045;SDS011;13044;49.304;12.840;2023-12-20T10:20:35;3.35;;;3.05;;
25045;SDS011;13044;49.304;12.840;2023-12-20T10:23:02;2.75;;;2.55;;
25045;SDS011;13044;49.304;12.840;2023-12-20T10:25:30;3.13;;;2.47;;
25045;SDS011;13044;49.304;12.840;2023-12-20T10:28:14;3.15;;;2.85;;
25045;SDS011;13044;49.304;12.840;2023-12-20T10:30:47;2.85;;;2.55;;
25045;SDS011;13044;49.304;12.840;2023-12-20T10:33:24;2.80;;;2.60;;
25045;SDS011;13044;49.304;12.840;2023-12-20T10:35:55;3.15;;;2.85;;
25045;SDS011;13044;49.304;12.840;2023-12-20T10:38:23;3.80;;;3.22;;
25045;SDS011;13044;49.304;12.840;2023-12-20T10:40:52;3.35;;;2.83;;
25045;SDS011;13044;49.304;12.840;2023-12-20T10:43:25;3.50;;;2.75;;
25045;SDS011;13044;49.304;12.840;2023-12-20T10:45:55;3.35;;;2.58;;
25045;SDS011;13044;49.304;12.840;2023-12-20T10:48:23;7.05;;;4.28;;
25045;SDS011;13044;49.304;12.840;2023-12-20T10:50:56;3.88;;;3.40;;
25045;SDS011;13044;49.304;12.840;2023-12-20T10:53:24;3.65;;;2.97;;
25045;SDS011;13044;49.304;12.840;2023-12-20T10:55:52;4.35;;;3.25;;
25045;SDS011;13044;49.304;12.840;2023-12-20T10:58:25;3.67;;;2.80;;
25045;SDS011;13044;49.304;12.840;2023-12-20T11:00:55;3.33;;;2.70;;
25045;SDS011;13044;49.304;12.840;2023-12-20T11:03:32;6.10;;;3.83;;
25045;SDS011;13044;49.304;12.840;2023-12-20T11:06:06;3.13;;;2.83;;
25045;SDS011;13044;49.304;12.840;2023-12-20T11:11:37;6.53;;;4.03;;
25045;SDS011;13044;49.304;12.840;2023-12-20T11:14:27;3.13;;;2.60;;
25045;SDS011;13044;49.304;12.840;2023-12-20T11:17:17;2.80;;;2.38;;
25045;SDS011;13044;49.304;12.840;2023-12-20T11:22:27;7.72;;;2.70;;
25045;SDS011;13044;49.304;12.840;2023-12-20T11:25:04;4.38;;;2.80;;
25045;SDS011;13044;49.304;12.840;2023-12-20T11:27:40;4.82;;;2.35;;
25045;SDS011;13044;49.304;12.840;2023-12-20T11:30:10;6.00;;;3.30;;
25045;SDS011;13044;49.304;12.840;2023-12-20T11:32:38;3.33;;;2.20;;
25045;SDS011;13044;49.304;12.840;2023-12-20T11:37:37;7.15;;;3.63;;
25045;SDS011;13044;49.304;12.840;2023-12-20T11:40:16;7.93;;;4.47;;
25045;SDS011;13044;49.304;12.840;2023-12-20T11:42:45;4.32;;;2.30;;
25045;SDS011;13044;49.304;12.840;2023-12-20T11:45:19;3.50;;;2.35;;
25045;SDS011;13044;49.304;12.840;2023-12-20T11:47:49;20.35;;;13.07;;
25045;SDS011;13044;49.304;12.840;2023-12-20T11:50:18;7.10;;;3.97;;
25045;SDS011;13044;49.304;12.840;2023-12-20T11:52:46;3.53;;;2.35;;
25045;SDS011;13044;49.304;12.840;2023-12-20T11:55:14;3.75;;;2.20;;
25045;SDS011;13044;49.304;12.840;2023-12-20T11:57:41;2.03;;;1.80;;
25045;SDS011;13044;49.304;12.840;2023-12-20T12:00:10;4.80;;;1.92;;
25045;SDS011;13044;49.304;12.840;2023-12-20T12:02:37;2.25;;;1.70;;
25045;SDS011;13044;49.304;12.840;2023-12-20T12:05:04;3.58;;;2.17;;
25045;SDS011;13044;49.304;12.840;2023-12-20T12:07:33;2.90;;;2.33;;
25045;SDS011;13044;49.304;12.840;2023-12-20T12:10:01;4.75;;;3.00;;
25045;SDS011;13044;49.304;12.840;2023-12-20T12:12:29;5.03;;;2.85;;
25045;SDS011;13044;49.304;12.840;2023-12-20T12:14:58;6.78;;;2.65;;
25045;SDS011;13044;49.304;12.840;2023-12-20T12:17:25;4.95;;;2.00;;
25045;SDS011;13044;49.304;12.840;2023-12-20T12:20:01;11.60;;;2.33;;
25045;SDS011;13044;49.304;12.840;2023-12-20T12:22:32;3.97;;;1.70;;
25045;SDS011;13044;49.304;12.840;2023-12-20T12:25:08;7.10;;;2.10;;
25045;SDS011;13044;49.304;12.840;2023-12-20T12:27:41;3.88;;;2.00;;
25045;SDS011;13044;49.304;12.840;2023-12-20T12:30:09;6.78;;;1.83;;
25045;SDS011;13044;49.304;12.840;2023-12-20T12:32:38;4.97;;;1.73;;
25045;SDS011;13044;49.304;12.840;2023-12-20T12:35:07;47.60;;;16.00;;
25045;SDS011;13044;49.304;12.840;2023-12-20T12:37:39;18.67;;;7.40;;
25045;SDS011;13044;49.304;12.840;2023-12-20T12:40:11;9.48;;;4.07;;
25045;SDS011;13044;49.304;12.840;2023-12-20T12:42:40;7.57;;;4.25;;
25045;SDS011;13044;49.304;12.840;2023-12-20T12:45:10;12.95;;;6.47;;
25045;SDS011;13044;49.304;12.840;2023-12-20T12:47:40;14.00;;;5.55;;
25045;SDS011;13044;49.304;12.840;2023-12-20T12:50:07;10.52;;;4.38;;
25045;SDS011;13044;49.304;12.840;2023-12-20T12:52:35;9.77;;;4.40;;
25045;SDS011;13044;49.304;12.840;2023-12-20T12:55:02;3.88;;;2.25;;
25045;SDS011;13044;49.304;12.840;2023-12-20T12:57:31;5.40;;;1.67;;
25045;SDS011;13044;49.304;12.840;2023-12-20T12:59:59;4.18;;;2.05;;
25045;SDS011;13044;49.304;12.840;2023-12-20T13:02:26;4.25;;;1.95;;
25045;SDS011;13044;49.304;12.840;2023-12-20T13:04:53;3.60;;;1.70;;
25045;SDS011;13044;49.304;12.840;2023-12-20T13:07:20;6.60;;;1.90;;
25045;SDS011;13044;49.304;12.840;2023-12-20T13:09:47;5.70;;;2.10;;
25045;SDS011;13044;49.304;12.840;2023-12-20T13:12:14;3.40;;;1.55;;
25045;SDS011;13044;49.304;12.840;2023-12-20T13:14:41;8.73;;;2.78;;
25045;SDS011;13044;49.304;12.840;2023-12-20T13:17:08;8.98;;;2.28;;
25045;SDS011;13044;49.304;12.840;2023-12-20T13:19:35;5.97;;;1.85;;
25045;SDS011;13044;49.304;12.840;2023-12-20T13:22:03;5.35;;;1.60;;
25045;SDS011;13044;49.304;12.840;2023-12-20T13:24:30;7.50;;;1.88;;
25045;SDS011;13044;49.304;12.840;2023-12-20T13:26:58;5.95;;;1.92;;
25045;SDS011;13044;49.304;12.840;2023-12-20T13:29:25;6.50;;;1.80;;
25045;SDS011;13044;49.304;12.840;2023-12-20T13:31:53;4.13;;;1.40;;
25045;SDS011;13044;49.304;12.840;2023-12-20T13:34:20;6.03;;;1.67;;
25045;SDS011;13044;49.304;12.840;2023-12-20T13:36:47;4.82;;;1.60;;
25045;SDS011;13044;49.304;12.840;2023-12-20T13:39:16;5.63;;;1.95;;
25045;SDS011;13044;49.304;12.840;2023-12-20T13:41:44;3.75;;;1.70;;
25045;SDS011;13044;49.304;12.840;2023-12-20T13:44:11;5.10;;;1.85;;
25045;SDS011;13044;49.304;12.840;2023-12-20T13:46:39;5.85;;;1.90;;
25045;SDS011;13044;49.304;12.840;2023-12-20T13:49:07;4.68;;;1.83;;
25045;SDS011;13044;49.304;12.840;2023-12-20T13:51:34;5.75;;;1.80;;
25045;SDS011;13044;49.304;12.840;2023-12-20T13:54:01;5.97;;;1.83;;
25045;SDS011;13044;49.304;12.840;2023-12-20T13:56:28;3.72;;;1.60;;
25045;SDS011;13044;49.304;12.840;2023-12-20T13:58:55;6.25;;;2.10;;
25045;SDS011;13044;49.304;12.840;2023-12-20T14:01:23;6.55;;;2.50;;
25045;SDS011;13044;49.304;12.840;2023-12-20T14:03:50;4.93;;;1.40;;
25045;SDS011;13044;49.304;12.840;2023-12-20T14:06:17;7.63;;;1.65;;
25045;SDS011;13044;49.304;12.840;2023-12-20T14:08:44;5.13;;;1.65;;
25045;SDS011;13044;49.304;12.840;2023-12-20T14:11:11;3.58;;;1.80;;
25045;SDS011;13044;49.304;12.840;2023-12-20T14:13:39;6.80;;;2.28;;
25045;SDS011;13044;49.304;12.840;2023-12-20T14:16:06;5.45;;;2.50;;
25045;SDS011;13044;49.304;12.840;2023-12-20T14:18:33;7.35;;;2.50;;
25045;SDS011;13044;49.304;12.840;2023-12-20T14:21:00;4.50;;;2.00;;
25045;SDS011;13044;49.304;12.840;2023-12-20T14:23:27;4.88;;;1.58;;
25045;SDS011;13044;49.304;12.840;2023-12-20T14:25:54;4.07;;;1.77;;
25045;SDS011;13044;49.304;12.840;2023-12-20T14:28:22;3.40;;;1.63;;
25045;SDS011;13044;49.304;12.840;2023-12-20T14:30:49;3.10;;;1.60;;
25045;SDS011;13044;49.304;12.840;2023-12-20T14:33:16;3.70;;;1.45;;
25045;SDS011;13044;49.304;12.840;2023-12-20T14:35:46;5.22;;;1.85;;
25045;SDS011;13044;49.304;12.840;2023-12-20T14:38:12;5.13;;;1.63;;
25045;SDS011;13044;49.304;12.840;2023-12-20T14:40:41;6.03;;;2.15;;
25045;SDS011;13044;49.304;12.840;2023-12-20T14:43:08;4.85;;;1.80;;
25045;SDS011;13044;49.304;12.840;2023-12-20T14:45:35;5.00;;;1.65;;
25045;SDS011;13044;49.304;12.840;2023-12-20T14:48:02;2.88;;;1.40;;